createdAt,value
2023-04-21T00:00:53.828Z,11.32
2023-04-21T00:03:22.186Z,11.55
2023-04-21T00:05:49.635Z,10.83
2023-04-21T00:08:16.658Z,11.35
2023-04-21T00:10:43.912Z,11.32
2023-04-21T00:13:10.788Z,11.23
2023-04-21T00:15:37.249Z,10.93
2023-04-21T00:18:03.935Z,11.39
2023-04-21T00:20:31.466Z,11.20
2023-04-21T00:22:59.034Z,11.83
2023-04-21T00:25:25.928Z,11.87
2023-04-21T00:27:52.281Z,11.44
2023-04-21T00:30:18.649Z,11.67
2023-04-21T00:32:45.167Z,11.83
2023-04-21T00:35:11.607Z,11.96
2023-04-21T00:37:38.047Z,12.03
2023-04-21T00:40:05.147Z,11.82
2023-04-21T00:42:31.656Z,12.14
2023-04-21T00:44:57.978Z,11.93
2023-04-21T00:47:25.369Z,11.69
2023-04-21T00:49:52.150Z,12.22
2023-04-21T00:52:19.269Z,12.06
2023-04-21T00:54:46.311Z,12.05
2023-04-21T00:57:13.196Z,12.04
2023-04-21T00:59:39.593Z,12.17
2023-04-21T01:02:06.102Z,12.07
2023-04-21T01:04:37.009Z,11.58
2023-04-21T01:07:05.024Z,12.32
2023-04-21T01:09:32.034Z,11.76
2023-04-21T01:12:05.677Z,12.03
2023-04-21T01:14:32.163Z,12.09
2023-04-21T01:16:59.161Z,11.68
2023-04-21T01:19:28.577Z,12.34
2023-04-21T01:21:57.523Z,11.97
2023-04-21T01:24:27.395Z,12.19
2023-04-21T01:26:53.816Z,12.21
2023-04-21T01:29:20.391Z,12.02
2023-04-21T01:31:48.062Z,11.94
2023-04-21T01:34:14.565Z,12.16
2023-04-21T01:36:41.212Z,11.64
2023-04-21T01:39:07.598Z,12.19
2023-04-21T01:41:34.032Z,12.26
2023-04-21T01:44:01.040Z,11.64
2023-04-21T01:46:27.867Z,12.14
2023-04-21T01:48:54.354Z,12.10
2023-04-21T01:51:20.723Z,11.93
2023-04-21T01:53:47.055Z,12.26
2023-04-21T01:56:14.980Z,12.47
2023-04-21T01:58:41.394Z,12.26
2023-04-21T02:01:07.786Z,12.16
2023-04-21T02:03:34.421Z,12.34
2023-04-21T02:06:01.022Z,12.39
2023-04-21T02:08:27.351Z,12.19
2023-04-21T02:10:53.670Z,12.32
2023-04-21T02:13:20.098Z,12.10
2023-04-21T02:15:46.478Z,12.00
2023-04-21T02:18:13.305Z,12.36
2023-04-21T02:20:39.846Z,12.33
2023-04-21T02:23:06.241Z,11.81
2023-04-21T02:25:32.842Z,12.26
2023-04-21T02:27:59.263Z,12.26
2023-04-21T02:30:26.043Z,11.83
2023-04-21T02:32:52.479Z,12.24
2023-04-21T02:35:18.907Z,11.61
2023-04-21T02:37:45.329Z,11.77
2023-04-21T02:40:12.393Z,11.72
2023-04-21T02:42:38.764Z,12.46
2023-04-21T02:45:05.763Z,11.80
2023-04-21T02:47:32.211Z,11.83
2023-04-21T02:49:58.572Z,12.22
2023-04-21T02:52:24.902Z,12.27
2023-04-21T02:54:51.246Z,12.09
2023-04-21T02:57:17.569Z,12.12
2023-04-21T02:59:43.984Z,11.94
2023-04-21T03:02:10.420Z,11.84
2023-04-21T03:04:37.803Z,11.39
2023-04-21T03:07:04.269Z,11.87
2023-04-21T03:09:30.718Z,12.00
2023-04-21T03:11:57.126Z,11.82
2023-04-21T03:14:23.494Z,11.25
2023-04-21T03:16:49.968Z,11.75
2023-04-21T03:19:16.542Z,11.55
2023-04-21T03:21:42.972Z,11.02
2023-04-21T03:24:09.360Z,11.18
2023-04-21T03:26:35.755Z,11.52
2023-04-21T03:29:02.159Z,10.63
2023-04-21T03:31:28.742Z,11.40
2023-04-21T03:33:55.248Z,11.21
2023-04-21T03:36:21.595Z,11.52
2023-04-21T03:38:48.138Z,11.31
2023-04-21T03:41:14.558Z,11.15
2023-04-21T03:43:40.977Z,11.26
2023-04-21T03:46:07.362Z,10.82
2023-04-21T03:48:33.972Z,10.88
2023-04-21T03:51:00.407Z,10.92
2023-04-21T03:53:26.783Z,11.15
2023-04-21T03:55:53.198Z,11.42
2023-04-21T03:58:19.548Z,11.49
2023-04-21T04:00:45.931Z,11.26
2023-04-21T04:03:12.423Z,10.78
2023-04-21T04:05:38.973Z,11.20
2023-04-21T04:08:06.463Z,10.85
2023-04-21T04:10:32.854Z,11.16
2023-04-21T04:12:59.214Z,11.37
2023-04-21T04:15:25.773Z,10.76
2023-04-21T04:17:52.183Z,10.44
2023-04-21T04:20:18.590Z,11.11
2023-04-21T04:22:46.612Z,11.15
2023-04-21T04:25:14.953Z,10.65
2023-04-21T04:27:41.396Z,10.63
2023-04-21T04:30:08.115Z,10.54
2023-04-21T04:32:34.647Z,10.69
2023-04-21T04:35:01.194Z,11.22
2023-04-21T04:37:28.059Z,11.12
2023-04-21T04:39:54.527Z,10.73
2023-04-21T04:42:20.869Z,11.19
2023-04-21T04:44:47.487Z,11.33
2023-04-21T04:47:14.010Z,10.63
2023-04-21T04:49:40.480Z,11.38
2023-04-21T04:52:06.973Z,10.65
2023-04-21T04:54:33.429Z,10.82
2023-04-21T04:56:59.875Z,11.44
2023-04-21T04:59:27.095Z,11.40
2023-04-21T05:01:54.805Z,11.43
2023-04-21T05:04:21.867Z,11.13
2023-04-21T05:06:48.595Z,11.35
2023-04-21T05:09:16.162Z,11.23
2023-04-21T05:11:42.520Z,10.76
2023-04-21T05:14:08.955Z,10.82
2023-04-21T05:16:35.487Z,11.55
2023-04-21T05:19:02.551Z,11.57
2023-04-21T05:21:29.163Z,11.48
2023-04-21T05:23:56.514Z,10.82
2023-04-21T05:26:23.494Z,11.43
2023-04-21T05:28:50.139Z,11.40
2023-04-21T05:31:16.669Z,11.64
2023-04-21T05:33:43.145Z,11.58
2023-04-21T05:36:10.299Z,11.18
2023-04-21T05:38:37.911Z,11.31
2023-04-21T05:41:04.839Z,11.29
2023-04-21T05:43:34.731Z,11.25
2023-04-21T05:46:01.954Z,11.49
2023-04-21T05:48:31.329Z,11.50
2023-04-21T05:50:57.658Z,11.40
2023-04-21T05:53:24.613Z,11.33
2023-04-21T05:55:50.934Z,11.44
2023-04-21T05:58:17.378Z,11.57
2023-04-21T06:00:43.799Z,11.61
2023-04-21T06:03:10.462Z,11.50
2023-04-21T06:05:37.129Z,11.32
2023-04-21T06:08:03.671Z,11.50
2023-04-21T06:10:30.853Z,11.37
2023-04-21T06:12:57.233Z,11.23
2023-04-21T06:15:23.618Z,11.60
2023-04-21T06:17:55.109Z,11.47
2023-04-21T06:20:21.700Z,11.63
2023-04-21T06:22:48.168Z,11.81
2023-04-21T06:25:16.878Z,11.90
2023-04-21T06:27:45.446Z,10.88
2023-04-21T06:30:12.460Z,11.94
2023-04-21T06:32:38.910Z,11.89
2023-04-21T06:35:05.829Z,12.04
2023-04-21T06:37:32.198Z,11.95
2023-04-21T06:39:58.570Z,11.62
2023-04-21T06:42:24.927Z,12.00
2023-04-21T06:44:51.246Z,12.36
2023-04-21T06:47:17.742Z,11.49
2023-04-21T06:49:44.237Z,11.48
2023-04-21T06:52:11.491Z,11.98
2023-04-21T06:54:38.288Z,11.56
2023-04-21T06:57:04.712Z,12.06
2023-04-21T06:59:31.192Z,12.29
2023-04-21T07:01:57.551Z,12.41
2023-04-21T07:04:24.015Z,12.47
2023-04-21T07:06:50.490Z,11.84
2023-04-21T07:09:17.144Z,12.01
2023-04-21T07:11:43.618Z,12.36
2023-04-21T07:14:10.909Z,11.84
2023-04-21T07:16:37.325Z,12.47
2023-04-21T07:19:03.822Z,12.69
2023-04-21T07:21:31.913Z,12.78
2023-04-21T07:23:58.792Z,12.73
2023-04-21T07:26:25.233Z,12.67
2023-04-21T07:28:52.726Z,12.82
2023-04-21T07:31:19.199Z,12.56
2023-04-21T07:33:45.839Z,12.15
2023-04-21T07:36:12.389Z,12.85
2023-04-21T07:38:43.050Z,12.16
2023-04-21T07:41:13.373Z,12.98
2023-04-21T07:43:40.414Z,12.16
2023-04-21T07:46:07.418Z,12.99
2023-04-21T07:48:33.899Z,12.96
2023-04-21T07:51:03.319Z,12.91
2023-04-21T07:53:30.547Z,12.77
2023-04-21T07:55:56.959Z,13.20
2023-04-21T07:58:23.364Z,13.05
2023-04-21T08:00:49.950Z,13.57
2023-04-21T08:03:16.437Z,13.05
2023-04-21T08:05:43.250Z,13.69
2023-04-21T08:08:09.744Z,13.51
2023-04-21T08:10:36.236Z,13.61
2023-04-21T08:13:06.158Z,13.64
2023-04-21T08:15:34.538Z,13.37
2023-04-21T08:18:01.415Z,13.31
2023-04-21T08:20:27.888Z,13.64
2023-04-21T08:22:54.387Z,13.43
2023-04-21T08:25:20.923Z,13.88
2023-04-21T08:27:47.443Z,13.55
2023-04-21T08:30:14.310Z,13.92
2023-04-21T08:32:40.752Z,14.28
2023-04-21T08:35:07.479Z,14.37
2023-04-21T08:37:36.740Z,13.65
2023-04-21T08:40:04.751Z,14.46
2023-04-21T08:42:31.332Z,14.64
2023-04-21T08:44:57.750Z,14.64
2023-04-21T08:47:24.341Z,14.86
2023-04-21T08:49:51.824Z,14.92
2023-04-21T08:52:18.251Z,14.41
2023-04-21T08:54:44.690Z,14.87
2023-04-21T08:59:41.369Z,14.79
2023-04-21T09:02:09.687Z,15.56
2023-04-21T09:04:43.749Z,15.58
2023-04-21T09:07:10.856Z,15.84
2023-04-21T09:09:57.593Z,16.15
2023-04-21T09:12:24.330Z,16.29
2023-04-21T09:14:51.331Z,16.22
2023-04-21T09:17:18.920Z,16.36
2023-04-21T09:19:45.393Z,16.22
2023-04-21T09:22:18.716Z,16.17
2023-04-21T09:25:02.356Z,16.51
2023-04-21T09:27:28.941Z,16.43
2023-04-21T09:29:55.477Z,16.51
2023-04-21T09:32:21.957Z,15.94
2023-04-21T09:34:49.411Z,16.66
2023-04-21T09:37:18.184Z,16.44
2023-04-21T09:39:57.348Z,16.30
2023-04-21T09:42:32.002Z,16.88
2023-04-21T09:45:14.130Z,17.26
2023-04-21T09:47:51.271Z,17.32
2023-04-21T09:50:39.239Z,17.49
2023-04-21T09:53:10.178Z,17.53
2023-04-21T09:55:36.810Z,17.49
2023-04-21T09:58:06.889Z,17.75
2023-04-21T10:00:39.112Z,17.65
2023-04-21T10:03:10.563Z,17.32
2023-04-21T10:05:42.802Z,17.87
2023-04-21T10:08:11.718Z,18.02
2023-04-21T10:10:39.519Z,18.38
2023-04-21T10:13:06.133Z,18.27
2023-04-21T10:15:40.088Z,18.09
2023-04-21T10:18:22.994Z,18.49
2023-04-21T10:21:03.323Z,18.88
2023-04-21T10:23:46.365Z,19.02
2023-04-21T10:26:24.011Z,18.54
2023-04-21T10:28:56.248Z,19.16
2023-04-21T10:31:32.586Z,19.28
2023-04-21T10:34:08.179Z,19.22
2023-04-21T10:36:52.946Z,19.53
2023-04-21T10:39:37.001Z,19.48
2023-04-21T10:42:12.500Z,19.97
2023-04-21T10:45:06.420Z,20.58
2023-04-21T10:47:48.989Z,21.52
2023-04-21T10:50:29.469Z,22.96
2023-04-21T10:53:12.511Z,24.68
2023-04-21T10:55:39.635Z,25.43
2023-04-21T10:58:11.256Z,24.71
2023-04-21T11:00:38.716Z,25.26
2023-04-21T11:03:07.294Z,26.32
2023-04-21T11:05:38.933Z,26.88
2023-04-21T11:08:13.949Z,26.96
2023-04-21T11:10:48.857Z,26.83
2023-04-21T11:13:15.526Z,26.53
2023-04-21T11:15:41.932Z,26.95
2023-04-21T11:18:09.648Z,25.25
2023-04-21T11:20:41.507Z,24.16
2023-04-21T11:23:07.896Z,23.65
2023-04-21T11:25:34.390Z,23.19
2023-04-21T11:28:00.925Z,23.57
2023-04-21T11:30:34.853Z,24.64
2023-04-21T11:33:01.705Z,24.87
2023-04-21T11:35:28.279Z,24.54
2023-04-21T11:37:55.571Z,24.47
2023-04-21T11:40:22.036Z,24.82
2023-04-21T11:42:48.584Z,25.82
2023-04-21T11:45:21.911Z,25.62
2023-04-21T11:47:49.083Z,25.66
2023-04-21T11:50:32.116Z,25.33
2023-04-21T11:52:58.593Z,25.82
2023-04-21T11:55:25.005Z,26.45
2023-04-21T11:57:51.512Z,26.35
2023-04-21T12:00:18.609Z,26.50
2023-04-21T12:02:55.709Z,26.29
2023-04-21T12:05:22.654Z,26.37
2023-04-21T12:07:49.753Z,26.29
2023-04-21T12:10:21.010Z,25.71
2023-04-21T12:12:47.993Z,25.92
2023-04-21T12:15:20.381Z,25.82
2023-04-21T12:17:49.154Z,25.34
2023-04-21T12:20:17.462Z,25.71
2023-04-21T12:22:44.202Z,25.93
2023-04-21T12:25:10.572Z,24.54
2023-04-21T12:27:37.033Z,24.49
2023-04-21T12:30:04.013Z,24.40
2023-04-21T12:32:30.791Z,24.18
2023-04-21T12:34:57.237Z,23.83
2023-04-21T12:37:23.600Z,25.30
2023-04-21T12:39:49.997Z,25.14
2023-04-21T12:42:16.483Z,25.60
2023-04-21T12:44:42.862Z,26.18
2023-04-21T12:47:09.488Z,25.95
2023-04-21T12:49:35.812Z,25.77
2023-04-21T12:52:05.209Z,26.13
2023-04-21T12:54:31.597Z,25.83
2023-04-21T12:56:58.110Z,25.49
2023-04-21T12:59:24.510Z,25.13
2023-04-21T13:01:51.091Z,25.41
2023-04-21T13:04:17.945Z,26.05
2023-04-21T13:06:44.516Z,26.33
2023-04-21T13:09:11.432Z,26.15
2023-04-21T13:11:37.905Z,26.70
2023-04-21T13:14:04.365Z,26.34
2023-04-21T13:16:31.295Z,25.78
2023-04-21T13:18:57.916Z,25.15
2023-04-21T13:21:24.353Z,25.18
2023-04-21T13:23:50.882Z,25.53
2023-04-21T13:26:18.158Z,25.80
2023-04-21T13:28:44.607Z,25.95
2023-04-21T13:31:11.083Z,26.32
2023-04-21T13:33:37.741Z,26.12
2023-04-21T13:36:04.428Z,26.18
2023-04-21T13:38:30.886Z,25.62
2023-04-21T13:40:57.480Z,25.96
2023-04-21T13:43:24.345Z,26.20
2023-04-21T13:45:52.253Z,26.14
2023-04-21T13:48:23.498Z,26.60
2023-04-21T13:50:51.012Z,26.12
2023-04-21T13:53:19.292Z,26.23
2023-04-21T13:55:47.438Z,26.51
2023-04-21T13:58:15.683Z,25.96
2023-04-21T14:00:42.107Z,26.52
2023-04-21T14:03:09.390Z,26.99
2023-04-21T14:05:36.230Z,27.00
2023-04-21T14:08:02.763Z,27.17
2023-04-21T14:10:29.177Z,26.80
2023-04-21T14:12:55.597Z,26.25
2023-04-21T14:15:22.000Z,25.93
2023-04-21T14:17:48.839Z,26.60
2023-04-21T14:20:15.320Z,26.17
2023-04-21T14:22:41.686Z,25.56
2023-04-21T14:25:08.586Z,25.48
2023-04-21T14:27:35.196Z,25.07
2023-04-21T14:30:02.283Z,24.94
2023-04-21T14:32:28.858Z,24.54
2023-04-21T14:34:58.345Z,24.30
2023-04-21T14:37:25.751Z,23.91
2023-04-21T14:39:52.164Z,23.92
2023-04-21T14:42:18.999Z,24.45
2023-04-21T14:44:45.499Z,24.85
2023-04-21T14:47:13.217Z,24.75
2023-04-21T14:49:39.814Z,25.82
2023-04-21T14:52:06.893Z,25.85
2023-04-21T14:54:33.481Z,26.39
2023-04-21T14:57:17.551Z,25.38
2023-04-21T14:59:46.633Z,25.36
2023-04-21T15:02:14.072Z,25.31
2023-04-21T15:04:40.956Z,25.09
2023-04-21T15:07:07.490Z,24.57
2023-04-21T15:09:35.577Z,24.62
2023-04-21T15:12:02.438Z,25.32
2023-04-21T15:14:28.973Z,25.23
2023-04-21T15:16:55.485Z,25.22
2023-04-21T15:19:24.003Z,25.02
2023-04-21T15:21:51.877Z,24.31
2023-04-21T15:24:18.263Z,24.69
2023-04-21T15:26:44.674Z,24.33
2023-04-21T15:29:11.294Z,24.35
2023-04-21T15:31:37.904Z,24.40
2023-04-21T15:34:04.366Z,24.39
2023-04-21T15:36:31.881Z,24.27
2023-04-21T15:38:58.366Z,24.18
2023-04-21T15:41:26.239Z,24.04
2023-04-21T15:43:53.774Z,24.03
2023-04-21T15:46:20.233Z,23.79
2023-04-21T15:48:46.997Z,23.60
2023-04-21T15:51:13.393Z,23.75
2023-04-21T15:53:47.182Z,23.53
2023-04-21T15:56:15.066Z,23.70
2023-04-21T15:58:41.580Z,23.25
2023-04-21T16:01:08.265Z,23.59
2023-04-21T16:03:35.222Z,23.27
2023-04-21T16:06:02.017Z,23.37
2023-04-21T16:08:28.762Z,22.85
2023-04-21T16:10:55.334Z,20.12
2023-04-21T16:13:21.720Z,18.04
2023-04-21T16:15:48.210Z,16.73
2023-04-21T16:18:14.695Z,17.00
2023-04-21T16:20:42.646Z,17.11
2023-04-21T16:23:09.419Z,17.26
2023-04-21T16:25:35.928Z,16.97
2023-04-21T16:28:02.468Z,16.89
2023-04-21T16:30:29.019Z,17.19
2023-04-21T16:32:55.389Z,17.49
2023-04-21T16:35:21.935Z,18.03
2023-04-21T16:37:48.405Z,18.04
2023-04-21T16:40:14.826Z,17.38
2023-04-21T16:42:41.424Z,17.85
2023-04-21T16:45:08.315Z,18.12
2023-04-21T16:47:41.366Z,18.37
2023-04-21T16:50:08.908Z,18.15
2023-04-21T16:52:35.469Z,17.82
2023-04-21T16:55:01.908Z,18.11
2023-04-21T16:57:29.686Z,17.65
2023-04-21T16:59:56.222Z,17.80
2023-04-21T17:02:22.808Z,18.10
2023-04-21T17:04:49.396Z,18.17
2023-04-21T17:07:16.046Z,17.81
2023-04-21T17:09:42.423Z,17.93
2023-04-21T17:12:09.427Z,18.13
2023-04-21T17:14:36.151Z,17.88
2023-04-21T17:17:02.811Z,18.24
2023-04-21T17:19:29.284Z,18.10
2023-04-21T17:21:55.830Z,17.58
2023-04-21T17:24:22.281Z,17.71
2023-04-21T17:26:48.731Z,17.17
2023-04-21T17:29:15.202Z,18.06
2023-04-21T17:31:41.566Z,18.13
2023-04-21T17:34:08.093Z,18.08
2023-04-21T17:36:34.554Z,18.08
2023-04-21T17:39:00.963Z,17.83
2023-04-21T17:41:27.745Z,17.95
2023-04-21T17:43:56.970Z,17.93
2023-04-21T17:46:25.433Z,17.72
2023-04-21T17:48:52.267Z,18.04
2023-04-21T17:51:19.317Z,18.15
2023-04-21T17:53:49.043Z,17.80
2023-04-21T17:56:15.773Z,17.94
2023-04-21T17:58:42.337Z,18.13
2023-04-21T18:01:08.725Z,18.25
2023-04-21T18:03:41.009Z,18.08
2023-04-21T18:06:09.816Z,18.41
2023-04-21T18:08:37.067Z,18.25
2023-04-21T18:11:03.478Z,17.75
2023-04-21T18:13:29.881Z,17.71
2023-04-21T18:15:56.345Z,18.27
2023-04-21T18:18:22.715Z,18.24
2023-04-21T18:20:49.095Z,17.52
2023-04-21T18:23:15.596Z,18.14
2023-04-21T18:25:42.915Z,17.81
2023-04-21T18:28:11.036Z,18.26
2023-04-21T18:30:37.591Z,17.59
2023-04-21T18:33:04.178Z,17.47
2023-04-21T18:35:33.004Z,18.13
2023-04-21T18:37:59.570Z,18.28
2023-04-21T18:40:26.033Z,17.78
2023-04-21T18:42:52.549Z,18.25
2023-04-21T18:45:18.900Z,18.19
2023-04-21T18:47:46.075Z,17.64
2023-04-21T18:50:12.511Z,17.32
2023-04-21T18:52:39.177Z,17.48
2023-04-21T18:55:06.027Z,17.74
2023-04-21T18:57:32.390Z,17.63
2023-04-21T19:00:00.201Z,16.47
2023-04-21T19:02:28.167Z,17.07
2023-04-21T19:04:54.808Z,17.31
2023-04-21T19:07:21.933Z,17.10
2023-04-21T19:09:48.296Z,17.09
2023-04-21T19:12:14.686Z,17.02
2023-04-21T19:14:47.166Z,16.64
2023-04-21T19:17:14.984Z,16.52
2023-04-21T19:19:41.751Z,16.13
2023-04-21T19:22:08.162Z,16.60
2023-04-21T19:24:35.269Z,16.87
2023-04-21T19:27:02.240Z,16.42
2023-04-21T19:29:29.029Z,16.43
2023-04-21T19:31:55.513Z,15.87
2023-04-21T19:34:22.154Z,16.85
2023-04-21T19:36:48.889Z,16.90
2023-04-21T19:39:15.341Z,16.45
2023-04-21T19:41:41.698Z,16.40
2023-04-21T19:44:08.157Z,16.80
2023-04-21T19:46:34.770Z,17.12
2023-04-21T19:49:01.271Z,17.13
2023-04-21T19:51:27.844Z,17.06
2023-04-21T19:54:10.156Z,17.09
2023-04-21T19:56:38.187Z,17.28
2023-04-21T19:59:05.436Z,17.13
2023-04-21T20:01:32.717Z,16.71
2023-04-21T20:03:59.861Z,16.70
2023-04-21T20:06:27.142Z,16.50
2023-04-21T20:08:54.016Z,16.74
2023-04-21T20:11:21.033Z,16.54
2023-04-21T20:13:47.765Z,16.33
2023-04-21T20:16:14.499Z,16.43
2023-04-21T20:18:40.865Z,16.18
2023-04-21T20:21:07.247Z,16.28
2023-04-21T20:23:33.675Z,16.00
2023-04-21T20:26:00.266Z,16.18
2023-04-21T20:28:27.717Z,16.59
2023-04-21T20:30:56.171Z,15.85
2023-04-21T20:33:22.725Z,16.22
2023-04-21T20:35:49.653Z,16.09
2023-04-21T20:38:16.365Z,15.33
2023-04-21T20:40:42.948Z,15.72
2023-04-21T20:43:10.273Z,16.47
2023-04-21T20:45:37.576Z,16.48
2023-04-21T20:48:05.526Z,16.46
2023-04-21T20:50:32.036Z,15.62
2023-04-21T20:52:58.362Z,15.74
2023-04-21T20:55:25.030Z,16.03
2023-04-21T20:57:51.402Z,16.01
2023-04-21T21:00:17.976Z,15.68
2023-04-21T21:02:44.700Z,15.66
2023-04-21T21:05:11.327Z,16.15
2023-04-21T21:07:37.842Z,15.85
2023-04-21T21:10:05.083Z,15.70
2023-04-21T21:12:31.477Z,15.61
2023-04-21T21:14:57.828Z,16.18
2023-04-21T21:17:24.269Z,16.19
2023-04-21T21:19:50.711Z,15.93
2023-04-21T21:22:17.084Z,15.84
2023-04-21T21:24:43.479Z,15.34
2023-04-21T21:27:09.963Z,15.93
2023-04-21T21:29:36.572Z,15.94
2023-04-21T21:32:03.275Z,15.92
2023-04-21T21:34:29.658Z,15.25
2023-04-21T21:36:56.103Z,15.69
2023-04-21T21:39:22.522Z,15.43
2023-04-21T21:41:48.867Z,15.52
2023-04-21T21:44:15.478Z,14.46
2023-04-21T21:46:42.450Z,14.95
2023-04-21T21:49:08.957Z,14.34
2023-04-21T21:51:35.365Z,14.80
2023-04-21T21:54:01.692Z,15.07
2023-04-21T21:56:28.046Z,15.30
2023-04-21T21:58:54.467Z,14.77
2023-04-21T22:01:20.995Z,14.58
2023-04-21T22:03:47.642Z,15.21
2023-04-21T22:06:16.261Z,14.83
2023-04-21T22:08:43.486Z,14.96
2023-04-21T22:11:09.938Z,14.94
2023-04-21T22:13:36.308Z,14.91
2023-04-21T22:16:02.684Z,15.03
2023-04-21T22:18:30.028Z,14.88
2023-04-21T22:20:57.911Z,15.00
2023-04-21T22:23:25.290Z,14.83
2023-04-21T22:25:51.762Z,14.31
2023-04-21T22:28:18.156Z,14.29
2023-04-21T22:30:44.594Z,14.22
2023-04-21T22:33:11.050Z,13.71
2023-04-21T22:35:37.487Z,14.82
2023-04-21T22:38:03.828Z,14.50
2023-04-21T22:40:30.245Z,14.46
2023-04-21T22:42:56.785Z,14.18
2023-04-21T22:45:23.184Z,14.06
2023-04-21T22:47:49.553Z,13.98
2023-04-21T22:50:15.960Z,13.70
2023-04-21T22:52:42.401Z,13.74
2023-04-21T22:55:09.256Z,14.00
2023-04-21T22:57:38.977Z,14.28
2023-04-21T23:00:07.941Z,14.35
2023-04-21T23:02:34.501Z,14.01
2023-04-21T23:05:01.158Z,13.89
2023-04-21T23:07:27.587Z,13.82
2023-04-21T23:09:53.931Z,13.92
2023-04-21T23:12:20.409Z,13.65
2023-04-21T23:14:48.154Z,13.81
2023-04-21T23:17:14.520Z,13.88
2023-04-21T23:19:41.070Z,13.94
2023-04-21T23:22:07.676Z,13.99
2023-04-21T23:24:34.303Z,13.99
2023-04-21T23:27:01.171Z,13.29
2023-04-21T23:29:27.833Z,13.76
2023-04-21T23:31:54.643Z,13.46
2023-04-21T23:34:21.113Z,14.03
2023-04-21T23:36:47.412Z,13.45
2023-04-21T23:39:13.813Z,13.71
2023-04-21T23:41:40.415Z,13.91
2023-04-21T23:44:06.772Z,13.30
2023-04-21T23:46:33.270Z,13.87
2023-04-21T23:48:59.771Z,13.89
2023-04-21T23:51:27.053Z,13.94
2023-04-21T23:53:53.569Z,13.99
2023-04-21T23:56:20.700Z,14.16
2023-04-21T23:58:47.206Z,13.54
